Time;durP1;ratioP1;P1;durP2;ratioP2;P2;SDS_P1;SDS_P2;PMS_P1;PMS_P2;Temp;Humidity;BMP_temperature;BMP_pressure;BME280_temperature;BME280_humidity;BME280_pressure;Samples;Min_cycle;Max_cycle;Signal;HPM_P1;HPM_P2
2020/12/08 00:00:23;;;;;;;4.95;2.30;;;;;;;-145.61;100.00;68426.72;5057355;28;20036;-82
2020/12/08 00:02:51;;;;;;;2.80;2.10;;;;;;;-145.61;100.00;68426.72;5057215;28;20057;-82
2020/12/08 00:05:19;;;;;;;3.45;2.10;;;;;;;-145.61;100.00;68426.72;5056236;28;20036;-82
2020/12/08 00:07:44;;;;;;;4.97;3.70;;;;;;;-145.61;100.00;68426.72;5057350;28;20321;-82
2020/12/08 00:10:10;;;;;;;3.25;2.80;;;;;;;-145.61;100.00;68426.72;5056165;28;20021;-82
2020/12/08 00:12:36;;;;;;;2.75;2.28;;;;;;;-145.61;100.00;68426.72;5056172;28;20075;-82
2020/12/08 00:15:04;;;;;;;2.72;2.45;;;;;;;-145.61;100.00;68426.72;5056113;28;20025;-82
2020/12/08 00:17:30;;;;;;;3.60;2.22;;;;;;;-145.61;100.00;68426.72;5057077;28;20064;-82
2020/12/08 00:19:55;;;;;;;2.72;2.22;;;;;;;-145.61;100.00;68426.72;5057068;28;20047;-82
2020/12/08 00:22:20;;;;;;;2.92;2.60;;;;;;;-145.61;100.00;68426.72;5056995;28;20033;-82
2020/12/08 00:24:46;;;;;;;2.55;2.30;;;;;;;-145.61;100.00;68426.72;5056988;28;20122;-82
2020/12/08 00:27:12;;;;;;;2.75;2.25;;;;;;;-145.61;100.00;68426.72;5056189;28;20028;-82
2020/12/08 00:29:38;;;;;;;2.78;2.20;;;;;;;-145.61;100.00;68426.72;5055771;28;20408;-82
2020/12/08 00:32:06;;;;;;;3.05;2.47;;;;;;;-145.61;100.00;68426.72;5055858;28;20031;-82
2020/12/08 00:34:31;;;;;;;3.00;2.20;;;;;;;-145.61;100.00;68426.72;5055408;28;20056;-82
2020/12/08 00:36:57;;;;;;;2.58;2.00;;;;;;;-145.61;100.00;68426.72;5055542;28;20048;-82
2020/12/08 00:39:22;;;;;;;2.92;2.30;;;;;;;-145.61;100.00;68426.72;5055772;28;20020;-82
2020/12/08 00:41:48;;;;;;;1.73;1.63;;;;;;;-145.61;100.00;68426.72;5056945;28;20021;-82
2020/12/08 00:44:13;;;;;;;2.15;1.70;;;;;;;-145.61;100.00;68426.72;5056799;28;20029;-82
2020/12/08 00:46:39;;;;;;;2.60;2.00;;;;;;;-145.61;100.00;68426.72;5055646;28;20043;-82
2020/12/08 00:49:06;;;;;;;2.20;1.85;;;;;;;-145.61;100.00;68426.72;5057312;28;20078;-82
2020/12/08 00:51:31;;;;;;;2.38;2.00;;;;;;;-145.61;100.00;68426.72;5055562;28;20124;-82
2020/12/08 00:53:57;;;;;;;3.42;2.20;;;;;;;-145.61;100.00;68426.72;5055406;28;20124;-82
2020/12/08 00:56:22;;;;;;;2.20;2.00;;;;;;;-145.61;100.00;68426.72;5045439;28;20108;-82
2020/12/08 00:58:47;;;;;;;2.72;2.22;;;;;;;-145.61;100.00;68426.72;5068925;28;20076;-82
2020/12/08 01:01:13;;;;;;;3.08;2.05;;;;;;;-145.61;100.00;68426.72;5036684;28;20436;-82
2020/12/08 01:03:38;;;;;;;3.05;2.00;;;;;;;-145.61;100.00;68426.72;5036642;28;20405;-82
2020/12/08 01:06:08;;;;;;;2.55;2.13;;;;;;;-145.61;100.00;68426.72;5035583;28;20029;-82
2020/12/08 01:08:34;;;;;;;3.15;2.78;;;;;;;-145.61;100.00;68426.72;5068882;28;20088;-82
2020/12/08 01:11:00;;;;;;;4.18;3.78;;;;;;;-145.61;100.00;68426.72;5068434;28;20128;-82
2020/12/08 01:13:25;;;;;;;3.30;2.58;;;;;;;-145.61;100.00;68426.72;5068822;28;20018;-82
2020/12/08 01:15:51;;;;;;;2.83;2.30;;;;;;;-145.61;100.00;68426.72;5036395;28;20029;-82
2020/12/08 01:18:16;;;;;;;2.63;2.03;;;;;;;-145.61;100.00;68426.72;5037053;28;20424;-82
2020/12/08 01:20:41;;;;;;;2.67;1.83;;;;;;;-145.61;100.00;68426.72;5035382;28;20079;-82
2020/12/08 01:23:08;;;;;;;4.50;2.60;;;;;;;-145.61;100.00;68426.72;5036938;28;20025;-82
2020/12/08 01:25:34;;;;;;;3.03;2.55;;;;;;;-145.61;100.00;68426.72;5036420;28;20021;-82
2020/12/08 01:28:00;;;;;;;2.47;2.00;;;;;;;-145.61;100.00;68426.72;5068649;28;20028;-82
2020/12/08 01:30:25;;;;;;;3.53;2.35;;;;;;;-145.61;100.00;68426.72;5036495;28;20033;-82
2020/12/08 01:32:51;;;;;;;2.67;2.08;;;;;;;-145.61;100.00;68426.72;5036376;28;20164;-82
2020/12/08 01:35:17;;;;;;;2.88;2.10;;;;;;;-145.61;100.00;68426.72;5036403;28;20087;-82
2020/12/08 01:37:44;;;;;;;2.10;1.55;;;;;;;-145.61;100.00;68426.72;5036433;28;20097;-82
2020/12/08 01:40:09;;;;;;;2.63;1.67;;;;;;;-145.61;100.00;68426.72;5055219;28;20021;-82
2020/12/08 01:42:35;;;;;;;1.85;1.55;;;;;;;-145.61;100.00;68426.72;5055134;28;20027;-82
2020/12/08 01:45:00;;;;;;;1.60;1.50;;;;;;;-145.61;100.00;68426.72;5055869;28;20397;-82
2020/12/08 01:47:27;;;;;;;2.45;1.83;;;;;;;-145.61;100.00;68426.72;5058890;28;20021;-82
2020/12/08 01:49:52;;;;;;;2.20;2.00;;;;;;;-145.61;100.00;68426.72;5058837;28;20401;-82
2020/12/08 01:52:19;;;;;;;2.30;1.95;;;;;;;-145.61;100.00;68426.72;5059669;28;20072;-82
2020/12/08 01:54:46;;;;;;;3.25;2.38;;;;;;;-145.61;100.00;68426.72;5060414;28;20025;-82
2020/12/08 01:57:12;;;;;;;2.75;2.42;;;;;;;-145.61;100.00;68426.72;5059722;28;20112;-82
2020/12/08 01:59:38;;;;;;;3.47;2.75;;;;;;;-145.61;100.00;68426.72;5058607;28;20417;-82
2020/12/08 02:02:04;;;;;;;5.03;3.10;;;;;;;-145.61;100.00;68426.72;5059663;28;20040;-82
2020/12/08 02:04:30;;;;;;;3.78;3.00;;;;;;;-145.61;100.00;68426.72;5058530;28;20025;-82
2020/12/08 02:06:55;;;;;;;3.65;3.30;;;;;;;-145.61;100.00;68426.72;5053767;28;20291;-82
2020/12/08 02:09:21;;;;;;;6.05;3.63;;;;;;;-145.61;100.00;68426.72;5038431;28;20047;-82
2020/12/08 02:11:46;;;;;;;5.95;3.42;;;;;;;-145.61;100.00;68426.72;5071834;28;20108;-82
2020/12/08 02:14:12;;;;;;;4.68;3.70;;;;;;;-145.61;100.00;68426.72;5039492;28;20444;-82
2020/12/08 02:16:37;;;;;;;5.20;3.30;;;;;;;-145.61;100.00;68426.72;5039242;28;20025;-82
2020/12/08 02:19:03;;;;;;;4.97;3.60;;;;;;;-145.61;100.00;68426.72;5052224;28;20021;-81
2020/12/08 02:21:31;;;;;;;4.32;3.35;;;;;;;-145.61;100.00;68426.72;5038270;28;20060;-82
2020/12/08 02:23:57;;;;;;;4.55;3.03;;;;;;;-145.61;100.00;68426.72;5038365;28;20096;-82
2020/12/08 02:26:22;;;;;;;3.63;3.00;;;;;;;-145.61;100.00;68426.72;5038189;28;20112;-82
2020/12/08 02:28:48;;;;;;;4.13;2.90;;;;;;;-145.61;100.00;68426.72;5039307;28;20424;-82
2020/12/08 02:31:13;;;;;;;3.10;2.80;;;;;;;-145.61;100.00;68426.72;5039029;28;20025;-82
2020/12/08 02:33:39;;;;;;;3.22;2.50;;;;;;;-145.61;100.00;68426.72;5038102;28;20044;-82
2020/12/08 02:36:04;;;;;;;4.38;2.78;;;;;;;-145.61;100.00;68426.72;5037971;28;20633;-81
2020/12/08 02:38:30;;;;;;;5.43;3.05;;;;;;;-145.61;100.00;68426.72;5039110;28;20032;-82
2020/12/08 02:40:55;;;;;;;3.47;2.83;;;;;;;-145.61;100.00;68426.72;5039007;28;20421;-82
2020/12/08 02:43:22;;;;;;;4.38;3.25;;;;;;;-145.61;100.00;68426.72;5039031;28;20064;-82
2020/12/08 02:45:48;;;;;;;3.63;2.80;;;;;;;-145.61;100.00;68426.72;5048588;28;20432;-82
2020/12/08 02:48:14;;;;;;;4.93;3.00;;;;;;;-145.61;100.00;68426.72;5057731;28;20440;-82
2020/12/08 02:50:39;;;;;;;4.82;3.35;;;;;;;-145.61;100.00;68426.72;5057637;28;20025;-82
2020/12/08 02:53:05;;;;;;;4.13;2.90;;;;;;;-145.61;100.00;68426.72;5058514;28;20344;-82
2020/12/08 02:55:31;;;;;;;3.58;3.20;;;;;;;-145.61;100.00;68426.72;5058618;28;20390;-82
2020/12/08 02:57:57;;;;;;;3.95;3.30;;;;;;;-145.61;100.00;68426.72;5057126;28;20029;-82
2020/12/08 03:00:22;;;;;;;4.03;3.20;;;;;;;-145.61;100.00;68426.72;5057466;28;20428;-82
2020/12/08 03:02:48;;;;;;;6.03;3.20;;;;;;;-145.61;100.00;68426.72;5058320;28;20037;-82
2020/12/08 03:05:13;;;;;;;5.03;3.10;;;;;;;-145.61;100.00;68426.72;5058516;28;20067;-82
2020/12/08 03:07:39;;;;;;;5.47;3.30;;;;;;;-145.61;100.00;68426.72;5058430;28;20017;-82
2020/12/08 03:10:08;;;;;;;4.72;3.15;;;;;;;-145.61;100.00;68426.72;5058339;28;20409;-82
2020/12/08 03:12:35;;;;;;;5.57;3.10;;;;;;;-145.61;100.00;68426.72;5057329;28;20035;-82
2020/12/08 03:15:00;;;;;;;3.63;3.03;;;;;;;-145.61;100.00;68426.72;5058838;28;20035;-82
2020/12/08 03:17:25;;;;;;;4.05;3.10;;;;;;;-145.61;100.00;68426.72;5056903;28;20411;-82
2020/12/08 03:19:51;;;;;;;3.80;2.72;;;;;;;-145.61;100.00;68426.72;5057151;28;20082;-82
2020/12/08 03:22:16;;;;;;;3.72;2.60;;;;;;;-145.61;100.00;68426.72;5057464;28;20112;-82
2020/12/08 03:24:42;;;;;;;4.75;2.58;;;;;;;-145.61;100.00;68426.72;5058115;28;20029;-82
2020/12/08 03:27:07;;;;;;;3.20;2.30;;;;;;;-145.61;100.00;68426.72;5057050;28;20328;-82
2020/12/08 03:29:33;;;;;;;4.80;2.58;;;;;;;-145.61;100.00;68426.72;5054515;28;20104;-82
2020/12/08 03:31:58;;;;;;;3.53;2.70;;;;;;;-145.61;100.00;68426.72;5058574;28;20092;-82
2020/12/08 03:34:24;;;;;;;3.90;2.75;;;;;;;-145.61;100.00;68426.72;5056812;28;20036;-82
2020/12/08 03:36:49;;;;;;;3.35;2.33;;;;;;;-145.61;100.00;68426.72;5056766;28;20021;-82
2020/12/08 03:39:16;;;;;;;2.55;2.35;;;;;;;-145.61;100.00;68426.72;5056744;28;20020;-82
2020/12/08 03:41:42;;;;;;;4.20;2.80;;;;;;;-145.61;100.00;68426.72;5057760;28;20098;-82
2020/12/08 03:44:08;;;;;;;5.82;3.45;;;;;;;-145.61;100.00;68426.72;5057604;28;20060;-82
2020/12/08 03:46:33;;;;;;;2.78;2.58;;;;;;;-145.61;100.00;68426.72;5056561;28;20016;-83
2020/12/08 03:48:58;;;;;;;4.13;3.10;;;;;;;-145.61;100.00;68426.72;5057433;28;20025;-82
2020/12/08 03:51:24;;;;;;;4.13;3.10;;;;;;;-145.61;100.00;68426.72;5056498;28;20017;-82
2020/12/08 03:53:49;;;;;;;3.80;3.40;;;;;;;-145.61;100.00;68426.72;5056158;28;20059;-82
2020/12/08 03:56:18;;;;;;;4.45;3.45;;;;;;;-145.61;100.00;68426.72;5057757;28;20017;-82
2020/12/08 03:58:47;;;;;;;4.88;3.47;;;;;;;-145.61;100.00;68426.72;5043433;28;20092;-82
2020/12/08 04:01:15;;;;;;;3.42;2.70;;;;;;;-145.61;100.00;68426.72;5037508;28;20026;-82
2020/12/08 04:03:45;;;;;;;3.92;2.58;;;;;;;-145.61;100.00;68426.72;5036376;28;20029;-82
2020/12/08 04:06:13;;;;;;;2.55;2.33;;;;;;;-145.61;100.00;68426.72;5036424;28;20075;-82
2020/12/08 04:08:43;;;;;;;2.72;2.10;;;;;;;-145.61;100.00;68426.72;5035562;28;20037;-82
2020/12/08 04:11:13;;;;;;;2.03;1.83;;;;;;;-145.61;100.00;68426.72;5037354;28;20086;-82
2020/12/08 04:13:38;;;;;;;2.20;2.00;;;;;;;-145.61;100.00;68426.72;5036067;28;20052;-83
2020/12/08 04:16:04;;;;;;;2.38;1.88;;;;;;;-145.61;100.00;68426.72;5053507;28;20072;-83
2020/12/08 04:18:29;;;;;;;2.35;2.00;;;;;;;-145.61;100.00;68426.72;5052732;28;20026;-82
2020/12/08 04:20:55;;;;;;;3.45;2.00;;;;;;;-145.61;100.00;68426.72;5037107;28;20061;-82
2020/12/08 04:23:22;;;;;;;3.15;2.20;;;;;;;-145.61;100.00;68426.72;5037048;28;20029;-83
2020/12/08 04:25:48;;;;;;;2.03;1.83;;;;;;;-145.61;100.00;68426.72;5037040;28;20025;-83
2020/12/08 04:28:14;;;;;;;8.48;3.28;;;;;;;-145.61;100.00;68426.72;5047463;28;20356;-83
2020/12/08 04:30:39;;;;;;;3.13;2.80;;;;;;;-145.61;100.00;68426.72;5056955;28;20024;-83
2020/12/08 04:33:05;;;;;;;3.60;2.60;;;;;;;-145.61;100.00;68426.72;5055747;28;20039;-82
2020/12/08 04:35:31;;;;;;;4.43;3.20;;;;;;;-145.61;100.00;68426.72;5055725;28;20049;-82
2020/12/08 04:37:56;;;;;;;5.55;3.70;;;;;;;-145.61;100.00;68426.72;5056798;28;20401;-82
2020/12/08 04:40:23;;;;;;;7.07;4.15;;;;;;;-145.61;100.00;68426.72;5056784;28;20025;-83
2020/12/08 04:42:53;;;;;;;4.78;3.90;;;;;;;-145.61;100.00;68426.72;5056731;28;20021;-82
2020/12/08 04:45:19;;;;;;;;;;;;;;;-145.61;100.00;68426.72;5056070;28;20079;-83
2020/12/08 04:47:45;;;;;;;5.18;3.90;;;;;;;-145.61;100.00;68426.72;5055537;28;19934;-83
2020/12/08 04:50:16;;;;;;;5.82;4.35;;;;;;;-145.61;100.00;68426.72;5055921;28;20044;-82
2020/12/08 04:52:43;;;;;;;5.68;4.50;;;;;;;-145.61;100.00;68426.72;5056314;28;20059;-82
2020/12/08 04:55:08;;;;;;;7.45;4.90;;;;;;;-145.61;100.00;68426.72;5056715;28;20107;-82
2020/12/08 04:57:34;;;;;;;5.85;4.35;;;;;;;-145.61;100.00;68426.72;5055461;28;20385;-82
2020/12/08 05:00:12;;;;;;;4.78;4.03;;;;;;;-145.61;100.00;68426.72;5056591;28;20025;-83
2020/12/08 05:02:55;;;;;;;5.75;4.20;;;;;;;-145.61;100.00;68426.72;5057136;28;20023;-83
2020/12/08 05:05:22;;;;;;;5.00;4.50;;;;;;;-145.61;100.00;68426.72;5055443;28;20124;-83
2020/12/08 05:07:49;;;;;;;5.00;4.25;;;;;;;-145.61;100.00;68426.72;5055399;28;20100;-83
2020/12/08 05:10:26;;;;;;;6.18;4.35;;;;;;;-145.61;100.00;68426.72;5055420;28;20025;-82
2020/12/08 05:12:54;;;;;;;5.60;4.18;;;;;;;-145.61;100.00;68426.72;5055672;28;20380;-82
2020/12/08 05:15:20;;;;;;;6.40;4.80;;;;;;;-145.61;100.00;68426.72;5056404;28;20047;-81
2020/12/08 05:17:46;;;;;;;5.43;4.50;;;;;;;-145.61;100.00;68426.72;5055226;28;20071;-82
2020/12/08 05:20:13;;;;;;;5.65;4.40;;;;;;;-145.61;100.00;68426.72;5057844;28;20029;-82
2020/12/08 05:22:54;;;;;;;4.88;3.80;;;;;;;-145.61;100.00;68426.72;5059099;28;20082;-83
2020/12/08 05:25:20;;;;;;;4.88;3.78;;;;;;;-145.61;100.00;68426.72;5059738;28;20123;-82
2020/12/08 05:27:49;;;;;;;5.47;3.55;;;;;;;-145.61;100.00;68426.72;5048627;28;20053;-82
2020/12/08 05:30:17;;;;;;;5.50;3.58;;;;;;;-145.61;100.00;68426.72;5040384;28;20171;-83
2020/12/08 05:32:43;;;;;;;5.15;3.75;;;;;;;-145.61;100.00;68426.72;5060186;28;20083;-81
2020/12/08 05:35:11;;;;;;;4.93;3.78;;;;;;;-145.61;100.00;68426.72;5059041;28;20025;-82
2020/12/08 05:37:41;;;;;;;6.22;4.07;;;;;;;-145.61;100.00;68426.72;5060059;28;20029;-83
2020/12/08 05:40:15;;;;;;;6.03;4.50;;;;;;;-145.61;100.00;68426.72;5063696;28;20024;-83
2020/12/08 05:42:43;;;;;;;5.60;4.53;;;;;;;-145.61;100.00;68426.72;5060351;28;20029;-85
2020/12/08 05:45:16;;;;;;;5.10;3.88;;;;;;;-145.61;100.00;68426.72;5059209;28;20032;-85
2020/12/08 05:47:45;;;;;;;5.63;4.22;;;;;;;-145.61;100.00;68426.72;5060076;28;20108;-85
2020/12/08 05:50:10;;;;;;;6.90;5.35;;;;;;;-145.61;100.00;68426.72;5060343;28;20078;-85
2020/12/08 05:52:40;;;;;;;7.03;5.07;;;;;;;-145.61;100.00;68426.72;5058835;28;20057;-86
2020/12/08 05:55:11;;;;;;;7.10;5.68;;;;;;;-145.61;100.00;68426.72;5058850;28;20017;-86
2020/12/08 05:57:37;;;;;;;;;;;;;;;-145.61;100.00;68426.72;5060339;28;20406;-86
2020/12/08 06:00:04;;;;;;;9.07;7.18;;;;;;;-145.61;100.00;68426.72;5058485;28;19912;-85
2020/12/08 06:02:30;;;;;;;10.35;8.35;;;;;;;-145.61;100.00;68426.72;5039299;28;20414;-84
2020/12/08 06:04:58;;;;;;;13.63;11.40;;;;;;;-145.61;100.00;68426.72;5038791;28;20030;-85
2020/12/08 06:07:31;;;;;;;12.93;10.25;;;;;;;-145.61;100.00;68426.72;5072088;28;20052;-85
2020/12/08 06:10:08;;;;;;;12.95;10.63;;;;;;;-145.61;100.00;68426.72;5039817;28;20107;-86
2020/12/08 06:12:34;;;;;;;12.85;10.27;;;;;;;-145.61;100.00;68426.72;5057127;28;20052;-85
2020/12/08 06:15:00;;;;;;;11.27;9.05;;;;;;;-145.61;100.00;68426.72;5040373;28;20321;-85
2020/12/08 06:17:25;;;;;;;12.60;7.97;;;;;;;-145.61;100.00;68426.72;5039517;28;20025;-84
2020/12/08 06:19:51;;;;;;;10.23;7.82;;;;;;;-145.61;100.00;68426.72;5052513;28;20031;-83
2020/12/08 06:22:17;;;;;;;11.25;8.45;;;;;;;-145.61;100.00;68426.72;5057853;28;20025;-85
2020/12/08 06:24:54;;;;;;;12.68;8.82;;;;;;;-145.61;100.00;68426.72;5058888;28;20107;-84
2020/12/08 06:27:24;;;;;;;11.55;8.35;;;;;;;-145.61;100.00;68426.72;5054446;28;20025;-86
2020/12/08 06:29:56;;;;;;;10.37;8.17;;;;;;;-145.61;100.00;68426.72;5058239;28;20477;-85
2020/12/08 06:32:29;;;;;;;9.65;7.03;;;;;;;-145.61;100.00;68426.72;5057694;28;20275;-85
2020/12/08 06:35:21;;;;;;;10.35;7.13;;;;;;;-145.61;100.00;68426.72;5057790;28;20021;-84
2020/12/08 06:37:54;;;;;;;9.43;6.68;;;;;;;-145.61;100.00;68426.72;5036921;28;20029;-85
2020/12/08 06:40:24;;;;;;;8.80;6.63;;;;;;;-145.61;100.00;68426.72;5037716;28;20310;-85
2020/12/08 06:42:50;;;;;;;7.35;6.05;;;;;;;-145.61;100.00;68426.72;5052642;28;20167;-84
2020/12/08 06:45:21;;;;;;;10.57;7.00;;;;;;;-145.61;100.00;68426.72;5057789;28;20028;-85
2020/12/08 06:47:47;;;;;;;7.80;6.47;;;;;;;-145.61;100.00;68426.72;5058650;28;20024;-85
2020/12/08 06:50:23;;;;;;;12.45;7.88;;;;;;;-145.61;100.00;68426.72;5054377;28;20153;-85
2020/12/08 06:52:53;;;;;;;16.08;12.98;;;;;;;-145.61;100.00;68426.72;5057479;28;20045;-85
2020/12/08 06:55:19;;;;;;;16.42;11.73;;;;;;;-145.61;100.00;68426.72;5057810;28;20021;-85
2020/12/08 06:57:44;;;;;;;19.95;14.25;;;;;;;-145.61;100.00;68426.72;5057482;28;20032;-85
2020/12/08 07:00:11;;;;;;;20.13;13.27;;;;;;;-145.61;100.00;68426.72;5054690;28;20035;-84
2020/12/08 07:02:49;;;;;;;22.40;13.60;;;;;;;-145.61;100.00;68426.72;5057243;28;20017;-84
2020/12/08 07:05:22;;;;;;;18.67;13.63;;;;;;;-145.61;100.00;68426.72;5051497;28;20025;-83
2020/12/08 07:07:48;;;;;;;22.40;13.57;;;;;;;-145.61;100.00;68426.72;5043901;28;20013;-85
2020/12/08 07:10:15;;;;;;;20.02;13.75;;;;;;;-145.61;100.00;68426.72;5057272;28;20087;-85
2020/12/08 07:12:43;;;;;;;20.63;14.80;;;;;;;-145.61;100.00;68426.72;5051958;28;20029;-85
2020/12/08 07:15:15;;;;;;;19.10;14.68;;;;;;;-145.61;100.00;68426.72;5059284;28;20017;-86
2020/12/08 07:17:40;;;;;;;18.63;12.30;;;;;;;-145.61;100.00;68426.72;5058225;28;20074;-86
2020/12/08 07:20:06;;;;;;;16.55;10.68;;;;;;;-145.61;100.00;68426.72;5058327;28;20028;-86
2020/12/08 07:22:43;;;;;;;13.25;9.85;;;;;;;-145.61;100.00;68426.72;5057318;28;20067;-86
2020/12/08 07:25:10;;;;;;;16.00;10.30;;;;;;;-145.61;100.00;68426.72;5057162;28;20029;-86
2020/12/08 07:27:41;;;;;;;11.65;9.02;;;;;;;-145.61;100.00;68426.72;5057229;28;20027;-86
2020/12/08 07:30:17;;;;;;;13.18;9.75;;;;;;;-145.61;100.00;68426.72;5057078;28;20063;-85
2020/12/08 07:32:43;;;;;;;13.48;9.18;;;;;;;-145.61;100.00;68426.72;5057146;28;20024;-86
2020/12/08 07:35:27;;;;;;;15.75;10.95;;;;;;;-145.61;100.00;68426.72;5075626;28;20028;-85
2020/12/08 07:37:55;;;;;;;15.80;11.10;;;;;;;-145.61;100.00;68426.72;5056470;28;20029;-86
2020/12/08 07:40:22;;;;;;;18.13;11.77;;;;;;;-145.61;100.00;68426.72;5057904;28;20085;-86
2020/12/08 07:42:51;;;;;;;26.00;12.77;;;;;;;-145.61;100.00;68426.72;5056058;28;20357;-86
2020/12/08 07:45:18;;;;;;;23.88;11.57;;;;;;;-145.61;100.00;68426.72;5056929;28;20475;-86
2020/12/08 07:47:52;;;;;;;18.85;11.20;;;;;;;-145.61;100.00;68426.72;5036822;28;20071;-86
2020/12/08 07:50:29;;;;;;;16.23;10.18;;;;;;;-145.61;100.00;68426.72;5040404;28;20032;-86
2020/12/08 07:52:59;;;;;;;14.90;9.90;;;;;;;-145.61;100.00;68426.72;5056736;28;20064;-85
2020/12/08 07:55:26;;;;;;;13.38;8.77;;;;;;;-145.61;100.00;68426.72;5059998;28;20017;-85
2020/12/08 07:57:52;;;;;;;9.90;6.93;;;;;;;-145.61;100.00;68426.72;5056144;28;20064;-86
2020/12/08 08:00:17;;;;;;;11.82;7.07;;;;;;;-145.61;100.00;68426.72;5056622;28;20017;-85
2020/12/08 08:02:43;;;;;;;10.90;7.07;;;;;;;-145.61;100.00;68426.72;5037690;28;20306;-86
2020/12/08 08:05:12;;;;;;;11.00;7.28;;;;;;;-145.61;100.00;68426.72;5037666;28;20092;-86
2020/12/08 08:07:37;;;;;;;7.97;6.15;;;;;;;-145.61;100.00;68426.72;5050547;28;20317;-86
2020/12/08 08:10:03;;;;;;;8.70;5.43;;;;;;;-145.61;100.00;68426.72;5056230;28;20025;-86
2020/12/08 08:12:28;;;;;;;7.63;5.25;;;;;;;-145.61;100.00;68426.72;5057159;28;20056;-85
2020/12/08 08:14:55;;;;;;;8.68;5.72;;;;;;;-145.61;100.00;68426.72;5056219;28;20033;-85
2020/12/08 08:17:21;;;;;;;5.43;4.57;;;;;;;-145.61;100.00;68426.72;5056037;28;20060;-85
2020/12/08 08:19:47;;;;;;;6.30;5.47;;;;;;;-145.61;100.00;68426.72;5057205;28;20036;-85
2020/12/08 08:22:12;;;;;;;8.18;5.70;;;;;;;-145.61;100.00;68426.72;5055879;28;20329;-85
2020/12/08 08:24:38;;;;;;;9.57;6.30;;;;;;;-145.61;100.00;68426.72;5056245;28;20029;-85
2020/12/08 08:27:03;;;;;;;9.65;6.13;;;;;;;-145.61;100.00;68426.72;5055867;28;20072;-86
2020/12/08 08:29:29;;;;;;;8.65;5.90;;;;;;;-145.61;100.00;68426.72;5056227;28;20050;-86
2020/12/08 08:31:54;;;;;;;7.85;6.15;;;;;;;-145.61;100.00;68426.72;5057109;28;20025;-84
2020/12/08 08:34:20;;;;;;;8.57;5.82;;;;;;;-145.61;100.00;68426.72;5057053;28;20427;-84
2020/12/08 08:36:53;;;;;;;8.65;5.85;;;;;;;-145.61;100.00;68426.72;5055860;28;20047;-85
2020/12/08 08:39:19;;;;;;;10.85;6.07;;;;;;;-145.61;100.00;68426.72;5057630;28;20312;-85
2020/12/08 08:41:44;;;;;;;8.65;5.93;;;;;;;-145.61;100.00;68426.72;5055625;28;20020;-85
2020/12/08 08:44:10;;;;;;;7.15;5.40;;;;;;;-145.61;100.00;68426.72;5048433;28;20029;-85
2020/12/08 08:46:39;;;;;;;9.68;6.22;;;;;;;-145.61;100.00;68426.72;5055758;28;20029;-85
2020/12/08 08:49:04;;;;;;;9.55;5.63;;;;;;;-145.61;100.00;68426.72;5055810;28;20021;-84
2020/12/08 08:51:30;;;;;;;10.50;5.47;;;;;;;-145.61;100.00;68426.72;5055627;28;20329;-84
2020/12/08 08:53:55;;;;;;;6.68;3.13;;;;;;;-145.61;100.00;68426.72;5056169;28;20053;-84
2020/12/08 08:56:21;;;;;;;6.97;2.60;;;;;;;-145.61;100.00;68426.72;5055364;28;20029;-83
2020/12/08 08:58:46;;;;;;;6.13;3.03;;;;;;;-145.61;100.00;68426.72;5055606;28;20025;-84
2020/12/08 09:01:11;;;;;;;4.40;2.60;;;;;;;-145.61;100.00;68426.72;5055469;28;20025;-84
2020/12/08 09:03:38;;;;;;;5.03;3.15;;;;;;;-145.61;100.00;68426.72;5056504;28;20033;-85
2020/12/08 09:06:04;;;;;;;4.50;3.15;;;;;;;-145.61;100.00;68426.72;5055472;28;20029;-84
2020/12/08 09:08:29;;;;;;;6.53;4.47;;;;;;;-145.61;100.00;68426.72;5056569;28;20036;-85
2020/12/08 09:10:55;;;;;;;6.57;5.35;;;;;;;-145.61;100.00;68426.72;5055587;28;20416;-85
2020/12/08 09:13:20;;;;;;;8.40;5.95;;;;;;;-145.61;100.00;68426.72;5055555;28;20049;-85
2020/12/08 09:15:46;;;;;;;9.73;5.35;;;;;;;-145.61;100.00;68426.72;5054659;28;20025;-85
2020/12/08 09:18:11;;;;;;;8.50;4.57;;;;;;;-145.61;100.00;68426.72;5052233;28;20111;-85
2020/12/08 09:20:37;;;;;;;10.55;5.13;;;;;;;-145.61;100.00;68426.72;5055263;28;20029;-85
2020/12/08 09:23:03;;;;;;;7.20;4.20;;;;;;;-145.61;100.00;68426.72;5055469;28;20024;-85
2020/12/08 09:25:28;;;;;;;5.93;4.45;;;;;;;-145.61;100.00;68426.72;5055275;28;20389;-85
2020/12/08 09:27:55;;;;;;;6.03;3.80;;;;;;;-145.61;100.00;68426.72;5055226;28;20025;-84
2020/12/08 09:30:31;;;;;;;4.68;3.33;;;;;;;-145.61;100.00;68426.72;5056356;28;20056;-85
2020/12/08 09:32:56;;;;;;;5.22;3.28;;;;;;;-145.61;100.00;68426.72;5049649;28;20033;-85
2020/12/08 09:35:21;;;;;;;7.40;3.53;;;;;;;-145.61;100.00;68426.72;5055402;28;20035;-84
2020/12/08 09:37:48;;;;;;;10.98;4.07;;;;;;;-145.61;100.00;68426.72;5054808;28;20029;-84
2020/12/08 09:40:13;;;;;;;9.15;3.60;;;;;;;-145.61;100.00;68426.72;5053186;28;20017;-84
2020/12/08 09:42:44;;;;;;;9.23;3.92;;;;;;;-145.61;100.00;68426.72;5055945;28;20032;-84
2020/12/08 09:45:09;;;;;;;8.50;3.33;;;;;;;-145.61;100.00;68426.72;5053952;28;20028;-84
2020/12/08 09:47:36;;;;;;;4.15;2.55;;;;;;;-145.61;100.00;68426.72;5054921;28;20029;-85
2020/12/08 09:50:05;;;;;;;3.53;2.50;;;;;;;-145.61;100.00;68426.72;5053938;28;20146;-84
2020/12/08 09:52:30;;;;;;;3.42;2.40;;;;;;;-145.61;100.00;68426.72;5055031;28;20178;-84
2020/12/08 09:54:56;;;;;;;8.27;3.30;;;;;;;-145.61;100.00;68426.72;5055344;28;20068;-84
2020/12/08 09:57:23;;;;;;;10.40;2.70;;;;;;;-145.61;100.00;68426.72;5054300;28;20025;-84
2020/12/08 09:59:49;;;;;;;3.80;2.10;;;;;;;-145.61;100.00;68426.72;5055166;28;20095;-87
2020/12/08 10:02:15;;;;;;;3.13;2.00;;;;;;;-145.61;100.00;68426.72;5054965;28;20029;-85
2020/12/08 10:04:40;;;;;;;2.33;2.00;;;;;;;-145.61;100.00;68426.72;5055435;28;20029;-85
2020/12/08 10:07:06;;;;;;;2.67;2.08;;;;;;;-145.61;100.00;68426.72;5057091;28;20021;-85
2020/12/08 10:09:31;;;;;;;3.15;2.05;;;;;;;-145.61;100.00;68426.72;5058611;28;20033;-85
2020/12/08 10:11:57;;;;;;;3.38;2.13;;;;;;;-145.61;100.00;68426.72;5058413;28;20024;-85
2020/12/08 10:14:22;;;;;;;4.03;2.47;;;;;;;-145.61;100.00;68426.72;5058840;28;20424;-85
2020/12/08 10:16:50;;;;;;;2.65;2.35;;;;;;;-145.61;100.00;68426.72;5056938;28;20043;-84
2020/12/08 10:19:16;;;;;;;4.78;3.22;;;;;;;-145.61;100.00;68426.72;5058433;28;20032;-85
2020/12/08 10:21:41;;;;;;;3.72;2.63;;;;;;;-145.61;100.00;68426.72;5058237;28;20036;-85
2020/12/08 10:24:07;;;;;;;3.53;2.40;;;;;;;-145.61;100.00;68426.72;5058028;28;20392;-85
2020/12/08 10:26:32;;;;;;;3.13;2.28;;;;;;;-145.61;100.00;68426.72;5057958;28;20024;-84
2020/12/08 10:28:58;;;;;;;2.67;2.22;;;;;;;-145.61;100.00;68426.72;5056572;28;20032;-84
2020/12/08 10:31:23;;;;;;;5.18;2.50;;;;;;;-145.61;100.00;68426.72;5057278;28;20061;-84
2020/12/08 10:33:49;;;;;;;3.30;2.10;;;;;;;-145.61;100.00;68426.72;5058150;28;20104;-85
2020/12/08 10:36:14;;;;;;;4.20;2.47;;;;;;;-145.61;100.00;68426.72;5047779;28;20037;-85
2020/12/08 10:38:40;;;;;;;5.97;3.30;;;;;;;-145.61;100.00;68426.72;5064003;28;20029;-85
2020/12/08 10:41:05;;;;;;;5.15;3.00;;;;;;;-145.61;100.00;68426.72;5058880;28;20025;-85
2020/12/08 10:43:31;;;;;;;4.18;2.90;;;;;;;-145.61;100.00;68426.72;5057975;28;20025;-85
2020/12/08 10:45:58;;;;;;;3.38;2.80;;;;;;;-145.61;100.00;68426.72;5057921;28;20060;-84
2020/12/08 10:48:24;;;;;;;3.35;1.77;;;;;;;-145.61;100.00;68426.72;5057368;28;20021;-84
2020/12/08 10:50:49;;;;;;;2.50;2.10;;;;;;;-145.61;100.00;68426.72;5058017;28;20036;-83
2020/12/08 10:53:15;;;;;;;2.83;1.90;;;;;;;-145.61;100.00;68426.72;5056799;28;20045;-82
2020/12/08 10:55:40;;;;;;;1.67;1.52;;;;;;;-145.61;100.00;68426.72;5057139;28;20029;-83
2020/12/08 10:58:06;;;;;;;1.85;1.65;;;;;;;-145.61;100.00;68426.72;5057540;28;20025;-83
2020/12/08 11:00:32;;;;;;;3.08;2.05;;;;;;;-145.61;100.00;68426.72;5055606;28;20033;-83
2020/12/08 11:03:03;;;;;;;8.25;2.72;;;;;;;-145.61;100.00;68426.72;5057335;28;20389;-83
2020/12/08 11:05:28;;;;;;;4.22;2.75;;;;;;;-145.61;100.00;68426.72;5056352;28;20108;-83